Time,TemperatureF,DewpointF,PressureIn,WindDirection,WindDirectionDegrees,WindSpeedMPH,WindSpeedGustMPH,Humidity,HourlyPrecipIn,Conditions,Clouds,dailyrainin,SolarRadiationWatts/m^2,SoftwareType,DateUTC
2013-04-21 00:02:00,56.5,38.6,30.08,ESE,109,8.1,8.1,51,0.00,OVC,,0.00,0.0,WeatherDisplay:10.37,2013-04-21 05:02:00,
2013-04-21 00:07:00,56.4,39.0,30.08,SE,130,4.6,4.6,52,0.00,OVC,,0.00,0.0,WeatherDisplay:10.37,2013-04-21 05:07:00,
2013-04-21 00:12:00,56.3,38.9,30.08,SSE,168,4.0,4.0,52,0.00,OVC,,0.00,0.0,WeatherDisplay:10.37,2013-04-21 05:12:00,
2013-04-21 00:17:00,56.3,38.9,30.08,SSE,150,4.6,4.6,52,0.00,OVC,,0.00,0.0,WeatherDisplay:10.37,2013-04-21 05:17:00,
2013-04-21 00:22:00,56.2,38.8,30.08,SSE,154,3.0,3.0,52,0.00,OVC,,0.00,0.0,WeatherDisplay:10.37,2013-04-21 05:22:00,
2013-04-21 00:27:00,56.1,38.7,30.08,SE,143,9.2,9.2,52,0.00,OVC,,0.00,0.0,WeatherDisplay:10.37,2013-04-21 05:27:00,
2013-04-21 00:32:00,56.0,38.6,30.08,ESE,123,4.6,4.6,52,0.00,OVC,,0.00,0.0,WeatherDisplay:10.37,2013-04-21 05:32:00,
2013-04-21 00:37:00,55.9,38.5,30.08,SE,128,8.1,8.1,52,0.00,OVC,,0.00,0.0,WeatherDisplay:10.37,2013-04-21 05:37:00,
2013-04-21 00:42:00,55.9,39.0,30.09,SE,135,5.8,5.8,53,0.00,OVC,,0.00,0.0,WeatherDisplay:10.37,2013-04-21 05:42:00,
2013-04-21 00:47:00,55.9,39.0,30.09,SE,124,5.0,5.0,53,0.00,OVC,,0.00,0.0,WeatherDisplay:10.37,2013-04-21 05:47:00,
2013-04-21 00:52:00,55.9,39.0,30.09,SE,128,9.2,9.2,53,0.00,OVC,,0.00,0.0,WeatherDisplay:10.37,2013-04-21 05:52:00,
2013-04-21 00:57:00,55.9,39.0,30.09,SSE,155,6.0,6.0,53,0.00,OVC,,0.00,0.0,WeatherDisplay:10.37,2013-04-21 05:57:00,
2013-04-21 01:02:00,55.9,39.0,30.09,SE,125,3.5,3.5,53,0.00,OVC,,0.00,0.0,WeatherDisplay:10.37,2013-04-21 06:02:00,
2013-04-21 01:07:00,55.9,39.0,30.09,ESE,112,8.1,8.1,53,0.00,OVC,,0.00,0.0,WeatherDisplay:10.37,2013-04-21 06:07:00,
2013-04-21 01:12:00,55.8,38.9,30.09,ESE,121,4.6,4.6,53,0.00,OVC,,0.00,0.0,WeatherDisplay:10.37,2013-04-21 06:12:00,
2013-04-21 01:17:00,55.8,39.4,30.09,ESE,123,3.5,3.5,54,0.00,OVC,,0.00,0.0,WeatherDisplay:10.37,2013-04-21 06:17:00,
2013-04-21 01:22:00,55.7,39.3,30.09,SE,126,4.6,4.6,54,0.00,OVC,,0.00,0.0,WeatherDisplay:10.37,2013-04-21 06:22:00,
2013-04-21 01:27:00,55.5,39.1,30.09,SE,126,3.5,3.5,54,0.00,OVC,,0.00,0.0,WeatherDisplay:10.37,2013-04-21 06:27:00,
2013-04-21 01:32:00,55.4,39.5,30.09,SE,135,6.9,6.9,55,0.00,OVC,,0.00,0.0,WeatherDisplay:10.37,2013-04-21 06:32:00,
2013-04-21 01:37:00,55.3,38.9,30.09,SSE,161,4.6,4.6,54,0.00,OVC,,0.00,0.0,WeatherDisplay:10.37,2013-04-21 06:37:00,
2013-04-21 01:42:00,55.2,39.3,30.09,SE,142,7.0,7.0,55,0.00,OVC,,0.00,0.0,WeatherDisplay:10.37,2013-04-21 06:42:00,
2013-04-21 01:47:00,55.2,39.3,30.09,SE,130,8.1,8.1,55,0.00,OVC,,0.00,0.0,WeatherDisplay:10.37,2013-04-21 06:47:00,
2013-04-21 01:52:00,55.2,39.3,30.09,SE,146,9.2,9.2,55,0.00,OVC,,0.00,0.0,WeatherDisplay:10.37,2013-04-21 06:52:00,
2013-04-21 01:57:00,55.3,39.4,30.09,ESE,122,6.0,6.0,55,0.00,OVC,,0.00,0.0,WeatherDisplay:10.37,2013-04-21 06:57:00,
2013-04-21 02:02:00,55.3,38.9,30.09,ESE,115,9.2,9.2,54,0.00,OVC,,0.00,0.0,WeatherDisplay:10.37,2013-04-21 07:02:00,
2013-04-21 02:07:00,55.4,38.5,30.09,SE,135,9.2,9.2,53,0.00,OVC,,0.00,0.0,WeatherDisplay:10.37,2013-04-21 07:07:00,
2013-04-21 02:12:00,55.7,38.8,30.09,South,177,11.5,11.5,53,0.00,-RA,,0.00,0.0,WeatherDisplay:10.37,2013-04-21 07:12:00,
2013-04-21 02:17:00,56.0,39.1,30.09,SSE,149,5.8,5.8,53,0.00,-RA,,0.00,0.0,WeatherDisplay:10.37,2013-04-21 07:17:00,
2013-04-21 02:22:00,56.2,39.3,30.09,SSE,159,6.0,6.0,53,0.00,-RA,,0.00,0.0,WeatherDisplay:10.37,2013-04-21 07:22:00,
2013-04-21 02:27:00,56.2,39.3,30.09,SE,133,5.0,5.0,53,0.00,-RA,,0.00,0.0,WeatherDisplay:10.37,2013-04-21 07:27:00,
2013-04-21 02:32:00,56.1,39.7,30.09,SE,145,9.2,9.2,54,0.00,-RA,,0.00,0.0,WeatherDisplay:10.37,2013-04-21 07:32:00,
2013-04-21 02:37:00,55.9,39.5,30.09,SSE,164,3.5,3.5,54,0.00,-RA,,0.00,0.0,WeatherDisplay:10.37,2013-04-21 07:37:00,
2013-04-21 02:42:00,55.8,39.9,30.09,SSE,159,5.8,5.8,55,0.00,-RA,,0.00,0.0,WeatherDisplay:10.37,2013-04-21 07:42:00,
2013-04-21 02:47:00,55.6,39.7,30.09,SSE,148,6.0,6.0,55,0.00,-RA,,0.00,0.0,WeatherDisplay:10.37,2013-04-21 07:47:00,
2013-04-21 02:52:00,55.3,39.9,30.09,SE,137,8.1,8.1,56,0.00,-RA,,0.00,0.0,WeatherDisplay:10.37,2013-04-21 07:52:00,
2013-04-21 02:57:00,55.1,39.7,30.09,South,184,8.1,8.1,56,0.00,-RA,,0.00,0.0,WeatherDisplay:10.37,2013-04-21 07:57:00,
2013-04-21 03:02:00,55.0,39.6,30.09,SSW,203,10.4,10.4,56,0.00,-RA,,0.00,0.0,WeatherDisplay:10.37,2013-04-21 08:02:00,
2013-04-21 03:07:00,55.0,39.6,30.09,South,181,10.4,10.4,56,0.00,-RA,,0.00,0.0,WeatherDisplay:10.37,2013-04-21 08:07:00,
2013-04-21 03:12:00,55.1,39.7,30.09,SSE,163,11.5,11.5,56,0.00,OVC,,0.00,0.0,WeatherDisplay:10.37,2013-04-21 08:12:00,
2013-04-21 03:17:00,55.1,39.2,30.08,SE,135,10.4,10.4,55,0.00,OVC,,0.00,0.0,WeatherDisplay:10.37,2013-04-21 08:17:00,
2013-04-21 03:22:00,55.3,39.4,30.08,SE,144,6.9,6.9,55,0.00,OVC,,0.00,0.0,WeatherDisplay:10.37,2013-04-21 08:22:00,
2013-04-21 03:27:00,55.4,39.0,30.08,SSE,153,9.0,9.0,54,0.00,OVC,,0.00,0.0,WeatherDisplay:10.37,2013-04-21 08:27:00,
2013-04-21 03:32:00,55.6,39.2,30.08,South,173,8.1,8.1,54,0.00,OVC,,0.00,0.0,WeatherDisplay:10.37,2013-04-21 08:32:00,
2013-04-21 03:37:00,55.7,39.3,30.08,East,92,9.2,9.2,54,0.00,OVC,,0.00,0.0,WeatherDisplay:10.37,2013-04-21 08:37:00,
2013-04-21 03:42:00,55.6,39.7,30.08,SE,142,6.9,6.9,55,0.00,OVC,,0.00,0.0,WeatherDisplay:10.37,2013-04-21 08:42:00,
2013-04-21 03:47:00,55.5,39.6,30.08,SE,124,6.9,6.9,55,0.00,OVC,,0.00,0.0,WeatherDisplay:10.37,2013-04-21 08:47:00,
2013-04-21 03:52:00,55.4,40.0,30.08,ESE,107,6.9,6.9,56,0.00,OVC,,0.00,0.0,WeatherDisplay:10.37,2013-04-21 08:52:00,
2013-04-21 03:57:00,55.2,39.8,30.08,ESE,105,10.4,10.4,56,0.00,OVC,,0.00,0.0,WeatherDisplay:10.37,2013-04-21 08:57:00,
2013-04-21 04:02:00,55.0,39.6,30.09,SE,132,9.0,9.0,56,0.00,OVC,,0.00,0.0,WeatherDisplay:10.37,2013-04-21 09:02:00,
2013-04-21 04:07:00,54.9,39.9,30.08,ESE,109,9.2,9.2,57,0.00,OVC,,0.00,0.0,WeatherDisplay:10.37,2013-04-21 09:07:00,
2013-04-21 04:12:00,54.8,39.8,30.08,ESE,111,11.5,11.5,57,0.00,OVC,,0.00,0.0,WeatherDisplay:10.37,2013-04-21 09:12:00,
2013-04-21 04:17:00,54.7,39.8,30.09,SSE,155,8.1,8.1,57,0.00,OVC,,0.00,0.0,WeatherDisplay:10.37,2013-04-21 09:17:00,
2013-04-21 04:22:00,54.7,39.8,30.09,ESE,114,8.1,8.1,57,0.00,OVC,,0.00,0.0,WeatherDisplay:10.37,2013-04-21 09:22:00,
2013-04-21 04:27:00,54.6,39.7,30.09,SE,128,6.9,6.9,57,0.00,OVC,,0.00,0.0,WeatherDisplay:10.37,2013-04-21 09:27:00,
2013-04-21 04:32:00,54.5,40.0,30.09,SE,125,5.8,5.8,58,0.00,OVC,,0.00,0.0,WeatherDisplay:10.37,2013-04-21 09:32:00,
2013-04-21 04:37:00,54.3,39.8,30.09,SE,125,6.9,6.9,58,0.00,OVC,,0.00,0.0,WeatherDisplay:10.37,2013-04-21 09:37:00,
2013-04-21 04:42:00,54.2,39.7,30.09,SE,132,8.1,8.1,58,0.00,OVC,,0.00,0.0,WeatherDisplay:10.37,2013-04-21 09:42:00,
2013-04-21 04:47:00,54.1,40.1,30.09,ESE,111,4.6,4.6,59,0.00,OVC,,0.00,0.0,WeatherDisplay:10.37,2013-04-21 09:47:00,
2013-04-21 04:52:00,54.0,40.0,30.09,ESE,115,6.9,6.9,59,0.00,OVC,,0.00,0.0,WeatherDisplay:10.37,2013-04-21 09:52:00,
2013-04-21 04:57:00,53.9,39.9,30.09,SE,140,4.6,4.6,59,0.00,OVC,,0.00,0.0,WeatherDisplay:10.37,2013-04-21 09:57:00,
2013-04-21 05:02:00,53.9,39.9,30.09,SE,132,8.1,8.1,59,0.00,OVC,,0.00,0.0,WeatherDisplay:10.37,2013-04-21 10:02:00,
2013-04-21 05:07:00,53.8,39.8,30.09,SE,127,11.5,11.5,59,0.00,OVC,,0.00,0.0,WeatherDisplay:10.37,2013-04-21 10:07:00,
2013-04-21 05:12:00,53.7,39.7,30.08,ESE,112,9.2,9.2,59,0.00,OVC,,0.00,0.0,WeatherDisplay:10.37,2013-04-21 10:12:00,
2013-04-21 05:17:00,53.5,39.5,30.09,SSE,157,6.9,6.9,59,0.00,OVC,,0.00,0.0,WeatherDisplay:10.37,2013-04-21 10:17:00,
2013-04-21 05:22:00,53.4,39.4,30.08,SE,130,6.9,6.9,59,0.00,OVC,,0.00,0.0,WeatherDisplay:10.37,2013-04-21 10:22:00,
2013-04-21 05:27:00,53.2,39.7,30.09,SE,127,4.6,4.6,60,0.00,OVC,,0.00,0.0,WeatherDisplay:10.37,2013-04-21 10:27:00,
2013-04-21 05:32:00,53.0,39.5,30.09,SE,138,6.9,6.9,60,0.00,OVC,,0.00,0.0,WeatherDisplay:10.37,2013-04-21 10:32:00,
2013-04-21 05:37:00,52.8,39.7,30.08,ESE,102,8.1,8.1,61,0.00,OVC,,0.00,0.0,WeatherDisplay:10.37,2013-04-21 10:37:00,
2013-04-21 05:42:00,52.7,39.6,30.08,SE,129,8.0,8.0,61,0.00,OVC,,0.00,0.0,WeatherDisplay:10.37,2013-04-21 10:42:00,
2013-04-21 05:47:00,52.5,39.4,30.09,ESE,103,4.6,4.6,61,0.00,OVC,,0.00,0.0,WeatherDisplay:10.37,2013-04-21 10:47:00,
2013-04-21 05:52:00,52.4,39.3,30.09,ESE,123,3.5,3.5,61,0.00,OVC,,0.00,0.0,WeatherDisplay:10.37,2013-04-21 10:52:00,
2013-04-21 05:57:00,52.3,39.7,30.09,ESE,116,4.6,4.6,62,0.00,OVC,,0.00,0.0,WeatherDisplay:10.37,2013-04-21 10:57:00,
2013-04-21 06:02:00,52.1,39.5,30.09,ESE,112,3.5,3.5,62,0.00,BKN,,0.00,0.0,WeatherDisplay:10.37,2013-04-21 11:02:00,
2013-04-21 06:07:00,51.9,39.3,30.09,SE,126,3.5,3.5,62,0.00,BKN,,0.00,0.0,WeatherDisplay:10.37,2013-04-21 11:07:00,
2013-04-21 06:12:00,51.9,39.3,30.09,SE,129,2.3,2.3,62,0.00,BKN,,0.00,0.0,WeatherDisplay:10.37,2013-04-21 11:12:00,
2013-04-21 06:17:00,51.7,39.5,30.09,SSE,148,6.9,6.9,63,0.00,BKN,,0.00,0.0,WeatherDisplay:10.37,2013-04-21 11:17:00,
2013-04-21 06:22:00,51.6,39.4,30.10,SSE,157,3.5,3.5,63,0.00,BKN,,0.00,0.0,WeatherDisplay:10.37,2013-04-21 11:22:00,
2013-04-21 06:27:00,51.5,39.3,30.10,SSE,161,3.5,3.5,63,0.00,BKN,,0.00,0.0,WeatherDisplay:10.37,2013-04-21 11:27:00,
2013-04-21 06:32:00,51.3,39.5,30.11,SSE,155,4.0,4.0,64,0.00,BKN,,0.00,0.0,WeatherDisplay:10.37,2013-04-21 11:32:00,
2013-04-21 06:37:00,51.2,39.4,30.11,SSE,154,2.3,2.3,64,0.00,BKN,,0.00,0.0,WeatherDisplay:10.37,2013-04-21 11:37:00,
2013-04-21 06:42:00,51.0,39.6,30.11,SE,125,3.5,3.5,65,0.00,BKN,,0.00,0.0,WeatherDisplay:10.37,2013-04-21 11:42:00,
2013-04-21 06:47:00,50.9,39.5,30.11,SE,136,4.6,4.6,65,0.00,BKN,,0.00,0.0,WeatherDisplay:10.37,2013-04-21 11:47:00,
2013-04-21 06:52:00,50.7,39.7,30.11,SE,132,1.2,1.2,66,0.00,BKN,,0.00,5.0,WeatherDisplay:10.37,2013-04-21 11:52:00,
2013-04-21 06:57:00,50.5,39.6,30.12,SE,145,3.0,3.0,66,0.00,BKN,,0.00,7.0,WeatherDisplay:10.37,2013-04-21 11:57:00,
2013-04-21 07:02:00,50.3,39.8,30.12,ESE,118,0.0,0.0,67,0.00,BKN,,0.00,12.0,WeatherDisplay:10.37,2013-04-21 12:02:00,
2013-04-21 07:07:00,50.1,39.6,30.12,East,79,2.3,2.3,67,0.00,BKN,,0.00,16.0,WeatherDisplay:10.37,2013-04-21 12:07:00,
2013-04-21 07:12:00,50.1,39.6,30.12,East,97,2.3,2.3,67,0.00,BKN,,0.00,16.0,WeatherDisplay:10.37,2013-04-21 12:12:00,
2013-04-21 07:17:00,50.0,39.8,30.12,SE,135,1.2,0.0,68,0.00,BKN,,0.00,18.0,WeatherDisplay:10.37,2013-04-21 12:17:00,
2013-04-21 07:22:00,49.9,39.8,30.12,SE,128,2.3,2.3,68,0.00,BKN,,0.00,21.0,WeatherDisplay:10.37,2013-04-21 12:22:00,
2013-04-21 07:27:00,49.9,40.1,30.12,ESE,123,3.5,3.5,69,0.00,BKN,,0.00,25.0,WeatherDisplay:10.37,2013-04-21 12:27:00,
2013-04-21 07:32:00,49.9,40.1,30.13,SE,130,3.5,3.5,69,0.00,BKN,,0.00,28.0,WeatherDisplay:10.37,2013-04-21 12:32:00,
2013-04-21 07:37:00,50.0,40.2,30.13,SSE,148,5.0,5.0,69,0.00,BKN,,0.00,32.0,WeatherDisplay:10.37,2013-04-21 12:37:00,
2013-04-21 07:42:00,50.1,40.3,30.13,ESE,120,2.3,2.3,69,0.00,BKN,,0.00,32.0,WeatherDisplay:10.37,2013-04-21 12:42:00,
2013-04-21 07:47:00,50.1,40.3,30.14,SE,126,4.0,4.0,69,0.00,BKN,,0.00,35.0,WeatherDisplay:10.37,2013-04-21 12:47:00,
2013-04-21 07:52:00,50.3,40.5,30.14,SE,132,3.5,3.5,69,0.00,BKN,,0.00,47.0,WeatherDisplay:10.37,2013-04-21 12:52:00,
2013-04-21 07:57:00,50.5,40.7,30.14,SE,140,6.9,6.9,69,0.00,BKN,,0.00,56.0,WeatherDisplay:10.37,2013-04-21 12:57:00,
2013-04-21 08:02:00,51.0,41.2,30.14,SE,124,4.6,4.6,69,0.00,SCT,,0.00,79.0,WeatherDisplay:10.37,2013-04-21 13:02:00,
2013-04-21 08:07:00,51.7,41.5,30.14,SE,126,4.6,4.6,68,0.00,SCT,,0.00,102.0,WeatherDisplay:10.37,2013-04-21 13:07:00,
2013-04-21 08:12:00,52.3,41.7,30.14,SSE,165,9.2,9.2,67,0.00,SCT,,0.00,81.0,WeatherDisplay:10.37,2013-04-21 13:12:00,
2013-04-21 08:17:00,53.0,41.9,30.14,South,187,10.4,10.4,66,0.00,SCT,,0.00,65.0,WeatherDisplay:10.37,2013-04-21 13:17:00,
2013-04-21 08:22:00,53.4,41.9,30.14,SE,142,5.8,5.8,65,0.00,SCT,,0.00,130.0,WeatherDisplay:10.37,2013-04-21 13:22:00,
2013-04-21 08:27:00,54.0,42.5,30.15,South,178,8.1,8.1,65,0.00,SCT,,0.00,163.0,WeatherDisplay:10.37,2013-04-21 13:27:00,
2013-04-21 08:32:00,54.6,42.3,30.14,ESE,108,11.5,11.5,63,0.00,SCT,,0.00,209.0,WeatherDisplay:10.37,2013-04-21 13:32:00,
2013-04-21 08:37:00,55.2,42.8,30.15,SSE,149,4.6,4.6,63,0.00,SCT,,0.00,120.0,WeatherDisplay:10.37,2013-04-21 13:37:00,
2013-04-21 08:42:00,55.7,42.9,30.15,South,177,8.1,8.1,62,0.00,SCT,,0.00,163.0,WeatherDisplay:10.37,2013-04-21 13:42:00,
2013-04-21 08:47:00,56.1,42.8,30.15,SSE,159,9.2,9.2,61,0.00,SCT,,0.00,165.0,WeatherDisplay:10.37,2013-04-21 13:47:00,
2013-04-21 08:52:00,56.4,43.1,30.14,SSE,162,11.5,11.5,61,0.00,SCT,,0.00,213.0,WeatherDisplay:10.37,2013-04-21 13:52:00,
2013-04-21 08:57:00,56.7,43.0,30.15,ESE,123,10.4,10.4,60,0.00,SCT,,0.00,105.0,WeatherDisplay:10.37,2013-04-21 13:57:00,
2013-04-21 09:02:00,57.1,43.3,30.14,SSE,153,6.9,6.9,60,0.00,SCT,,0.00,211.0,WeatherDisplay:10.37,2013-04-21 14:02:00,
2013-04-21 09:07:00,57.4,43.6,30.15,SSE,150,8.1,8.1,60,0.00,SCT,,0.00,156.0,WeatherDisplay:10.37,2013-04-21 14:07:00,
2013-04-21 09:12:00,57.6,43.8,30.15,SSE,156,11.5,11.5,60,0.00,SCT,,0.00,253.0,WeatherDisplay:10.37,2013-04-21 14:12:00,
2013-04-21 09:17:00,58.0,43.7,30.15,South,180,11.5,11.5,59,0.00,SCT,,0.00,301.0,WeatherDisplay:10.37,2013-04-21 14:17:00,
2013-04-21 09:22:00,58.0,42.8,30.15,South,190,11.5,11.5,57,0.00,SCT,,0.00,306.0,WeatherDisplay:10.37,2013-04-21 14:22:00,
2013-04-21 09:27:00,58.1,43.4,30.15,South,186,15.0,15.0,58,0.00,SCT,,0.00,367.0,WeatherDisplay:10.37,2013-04-21 14:27:00,
2013-04-21 09:32:00,58.4,44.1,30.15,East,101,11.5,11.5,59,0.00,SCT,,0.00,408.0,WeatherDisplay:10.37,2013-04-21 14:32:00,
2013-04-21 09:37:00,58.8,43.6,30.15,SSW,206,15.0,15.0,57,0.00,SCT,,0.00,345.0,WeatherDisplay:10.37,2013-04-21 14:37:00,
2013-04-21 09:42:00,59.1,43.9,30.14,ESE,116,13.8,13.8,57,0.00,SCT,,0.00,290.0,WeatherDisplay:10.37,2013-04-21 14:42:00,
2013-04-21 09:47:00,59.3,43.1,30.14,SE,135,17.3,17.3,55,0.00,SCT,,0.00,429.0,WeatherDisplay:10.37,2013-04-21 14:47:00,
2013-04-21 09:52:00,59.2,43.0,30.14,SSW,207,12.7,12.7,55,0.00,SCT,,0.00,316.0,WeatherDisplay:10.37,2013-04-21 14:52:00,
2013-04-21 09:57:00,59.3,43.1,30.15,SSE,152,13.8,13.8,55,0.00,SCT,,0.00,315.0,WeatherDisplay:10.37,2013-04-21 14:57:00,
2013-04-21 10:02:00,59.5,43.8,30.14,South,188,16.1,16.1,56,0.00,FEW,,0.00,74.0,WeatherDisplay:10.37,2013-04-21 15:02:00,
2013-04-21 10:07:00,59.7,43.5,30.14,SE,124,10.4,10.4,55,0.00,FEW,,0.00,487.0,WeatherDisplay:10.37,2013-04-21 15:07:00,
2013-04-21 10:12:00,60.0,43.3,30.14,SSE,155,15.0,15.0,54,0.00,FEW,,0.00,304.0,WeatherDisplay:10.37,2013-04-21 15:12:00,
2013-04-21 10:17:00,60.2,43.0,30.14,SE,132,15.0,15.0,53,0.00,FEW,,0.00,425.0,WeatherDisplay:10.37,2013-04-21 15:17:00,
2013-04-21 10:22:00,60.7,43.9,30.14,SSE,160,4.6,4.6,54,0.00,FEW,,0.00,617.0,WeatherDisplay:10.37,2013-04-21 15:22:00,
2013-04-21 10:27:00,61.1,44.3,30.14,South,176,13.0,13.0,54,0.00,FEW,,0.00,461.0,WeatherDisplay:10.37,2013-04-21 15:27:00,
2013-04-21 10:32:00,61.4,44.6,30.14,South,176,10.4,10.4,54,0.00,FEW,,0.00,466.0,WeatherDisplay:10.37,2013-04-21 15:32:00,
2013-04-21 10:37:00,61.7,44.9,30.14,SSE,168,5.8,5.8,54,0.00,FEW,,0.00,229.0,WeatherDisplay:10.37,2013-04-21 15:37:00,
2013-04-21 10:42:00,61.9,43.0,30.14,South,189,18.0,18.0,50,0.00,FEW,,0.00,555.0,WeatherDisplay:10.37,2013-04-21 15:42:00,
2013-04-21 10:47:00,61.8,43.0,30.14,SW,219,16.1,16.1,50,0.00,FEW,,0.00,633.0,WeatherDisplay:10.37,2013-04-21 15:47:00,
2013-04-21 10:52:00,62.1,44.3,30.14,SSE,159,17.3,17.3,52,0.00,FEW,,0.00,566.0,WeatherDisplay:10.37,2013-04-21 15:52:00,
2013-04-21 10:57:00,62.3,43.4,30.14,SE,146,12.7,12.7,50,0.00,FEW,,0.00,461.0,WeatherDisplay:10.37,2013-04-21 15:57:00,
2013-04-21 11:02:00,62.4,43.0,30.14,SW,219,16.1,16.1,49,0.00,FEW,,0.00,621.0,WeatherDisplay:10.37,2013-04-21 16:02:00,
2013-04-21 11:07:00,62.1,42.7,30.14,SSW,212,17.3,17.3,49,0.00,FEW,,0.00,127.0,WeatherDisplay:10.37,2013-04-21 16:07:00,
2013-04-21 11:12:00,62.1,43.2,30.14,South,189,20.7,20.7,50,0.00,FEW,,0.00,534.0,WeatherDisplay:10.37,2013-04-21 16:12:00,
2013-04-21 11:17:00,62.3,43.4,30.14,SW,214,13.8,13.8,50,0.00,FEW,,0.00,527.0,WeatherDisplay:10.37,2013-04-21 16:17:00,
2013-04-21 11:22:00,62.6,44.2,30.14,South,180,13.8,13.8,51,0.00,FEW,,0.00,454.0,WeatherDisplay:10.37,2013-04-21 16:22:00,
2013-04-21 11:27:00,63.1,44.2,30.14,SSW,205,16.1,16.1,50,0.00,FEW,,0.00,689.0,WeatherDisplay:10.37,2013-04-21 16:27:00,
2013-04-21 11:32:00,63.3,44.9,30.14,South,184,13.8,13.8,51,0.00,FEW,,0.00,693.0,WeatherDisplay:10.37,2013-04-21 16:32:00,
2013-04-21 11:37:00,63.7,44.2,30.14,South,179,10.4,10.4,49,0.00,FEW,,0.00,378.0,WeatherDisplay:10.37,2013-04-21 16:37:00,
2013-04-21 11:42:00,64.0,43.9,30.14,SSE,166,19.6,19.6,48,0.00,FEW,,0.00,647.0,WeatherDisplay:10.37,2013-04-21 16:42:00,
2013-04-21 11:47:00,64.0,43.9,30.14,SSW,196,25.0,25.0,48,0.00,FEW,,0.00,773.0,WeatherDisplay:10.37,2013-04-21 16:47:00,
2013-04-21 11:52:00,64.1,44.5,30.14,SE,140,17.3,17.3,49,0.00,FEW,,0.00,830.0,WeatherDisplay:10.37,2013-04-21 16:52:00,
2013-04-21 11:57:00,64.4,45.3,30.13,South,187,5.8,5.8,50,0.00,FEW,,0.00,837.0,WeatherDisplay:10.37,2013-04-21 16:57:00,
2013-04-21 12:02:00,65.0,45.4,30.13,SSW,202,9.2,9.2,49,0.00,FEW,,0.00,847.0,WeatherDisplay:10.37,2013-04-21 17:02:00,
2013-04-21 12:07:00,65.0,43.7,30.13,South,188,14.0,14.0,46,0.00,FEW,,0.00,856.0,WeatherDisplay:10.37,2013-04-21 17:07:00,
2013-04-21 12:12:00,64.9,43.6,30.13,SSW,208,13.0,13.0,46,0.00,FEW,,0.00,861.0,WeatherDisplay:10.37,2013-04-21 17:12:00,
2013-04-21 12:17:00,64.9,43.6,30.13,South,183,17.3,17.3,46,0.00,FEW,,0.00,868.0,WeatherDisplay:10.37,2013-04-21 17:17:00,
2013-04-21 12:22:00,64.9,44.7,30.13,SSW,194,15.0,15.0,48,0.00,FEW,,0.00,875.0,WeatherDisplay:10.37,2013-04-21 17:22:00,
2013-04-21 12:27:00,64.9,44.7,30.12,South,175,12.7,12.7,48,0.00,FEW,,0.00,879.0,WeatherDisplay:10.37,2013-04-21 17:27:00,
2013-04-21 12:32:00,65.1,44.4,30.12,SSE,161,15.0,15.0,47,0.00,FEW,,0.00,888.0,WeatherDisplay:10.37,2013-04-21 17:32:00,
2013-04-21 12:37:00,65.4,44.6,30.12,SW,218,17.3,17.3,47,0.00,FEW,,0.00,895.0,WeatherDisplay:10.37,2013-04-21 17:37:00,
2013-04-21 12:42:00,65.5,44.2,30.12,SE,144,23.0,23.0,46,0.00,FEW,,0.00,898.0,WeatherDisplay:10.37,2013-04-21 17:42:00,
2013-04-21 12:47:00,65.5,44.2,30.12,SSW,198,13.8,13.8,46,0.00,FEW,,0.00,896.0,WeatherDisplay:10.37,2013-04-21 17:47:00,
2013-04-21 12:52:00,65.6,45.4,30.11,South,173,16.1,16.1,48,0.00,FEW,,0.00,898.0,WeatherDisplay:10.37,2013-04-21 17:52:00,
2013-04-21 12:57:00,65.8,45.0,30.11,SE,142,16.1,16.1,47,0.00,FEW,,0.00,909.0,WeatherDisplay:10.37,2013-04-21 17:57:00,
2013-04-21 13:02:00,65.7,44.9,30.11,South,188,20.7,20.7,47,0.00,FEW,,0.00,919.0,WeatherDisplay:10.37,2013-04-21 18:02:00,
2013-04-21 13:07:00,65.8,45.6,30.11,SSW,198,18.4,18.4,48,0.00,FEW,,0.00,944.0,WeatherDisplay:10.37,2013-04-21 18:07:00,
2013-04-21 13:12:00,65.9,45.6,30.11,South,182,11.5,11.5,48,0.00,FEW,,0.00,912.0,WeatherDisplay:10.37,2013-04-21 18:12:00,
2013-04-21 13:17:00,66.0,45.2,30.11,SSE,155,14.0,14.0,47,0.00,FEW,,0.00,923.0,WeatherDisplay:10.37,2013-04-21 18:17:00,
2013-04-21 13:22:00,66.2,47.0,30.11,SSW,196,7.0,7.0,50,0.00,FEW,,0.00,939.0,WeatherDisplay:10.37,2013-04-21 18:22:00,
2013-04-21 13:27:00,66.6,45.2,30.10,South,175,16.1,16.1,46,0.00,FEW,,0.00,942.0,WeatherDisplay:10.37,2013-04-21 18:27:00,
2013-04-21 13:32:00,66.7,44.7,30.10,South,184,16.1,16.1,45,0.00,FEW,,0.00,438.0,WeatherDisplay:10.37,2013-04-21 18:32:00,
2013-04-21 13:37:00,66.5,45.6,30.10,SW,217,13.8,13.8,47,0.00,FEW,,0.00,967.0,WeatherDisplay:10.37,2013-04-21 18:37:00,
2013-04-21 13:42:00,66.6,44.6,30.09,East,79,10.4,10.4,45,0.00,FEW,,0.00,960.0,WeatherDisplay:10.37,2013-04-21 18:42:00,
2013-04-21 13:47:00,66.6,44.6,30.09,SW,218,8.0,8.0,45,0.00,FEW,,0.00,928.0,WeatherDisplay:10.37,2013-04-21 18:47:00,
2013-04-21 13:52:00,67.0,44.9,30.09,South,175,17.3,17.3,45,0.00,FEW,,0.00,926.0,WeatherDisplay:10.37,2013-04-21 18:52:00,
2013-04-21 13:57:00,67.1,46.2,30.09,SSW,207,12.7,12.7,47,0.00,FEW,,0.00,921.0,WeatherDisplay:10.37,2013-04-21 18:57:00,
2013-04-21 14:02:00,67.3,46.4,30.09,SSE,161,11.5,11.5,47,0.00,FEW,,0.00,965.0,WeatherDisplay:10.37,2013-04-21 19:02:00,
2013-04-21 14:07:00,67.4,45.3,30.09,South,175,9.2,9.2,45,0.00,FEW,,0.00,937.0,WeatherDisplay:10.37,2013-04-21 19:07:00,
2013-04-21 14:12:00,67.6,45.5,30.09,SSE,157,19.6,19.6,45,0.00,FEW,,0.00,918.0,WeatherDisplay:10.37,2013-04-21 19:12:00,
2013-04-21 14:17:00,67.8,44.5,30.08,SSE,148,12.7,12.7,43,0.00,FEW,,0.00,972.0,WeatherDisplay:10.37,2013-04-21 19:17:00,
2013-04-21 14:22:00,67.9,44.6,30.08,SSE,152,15.0,15.0,43,0.00,FEW,,0.00,914.0,WeatherDisplay:10.37,2013-04-21 19:22:00,
2013-04-21 14:27:00,68.1,45.9,30.08,SSW,192,12.7,12.7,45,0.00,FEW,,0.00,874.0,WeatherDisplay:10.37,2013-04-21 19:27:00,
2013-04-21 14:32:00,68.0,45.3,30.08,South,175,13.8,13.8,44,0.00,FEW,,0.00,944.0,WeatherDisplay:10.37,2013-04-21 19:32:00,
2013-04-21 14:37:00,67.9,46.3,30.08,South,191,13.8,13.8,46,0.00,FEW,,0.00,918.0,WeatherDisplay:10.37,2013-04-21 19:37:00,
2013-04-21 14:42:00,68.0,46.4,30.08,SSE,153,15.0,15.0,46,0.00,FEW,,0.00,942.0,WeatherDisplay:10.37,2013-04-21 19:42:00,
2013-04-21 14:47:00,67.9,45.8,30.08,SSW,196,20.7,20.7,45,0.00,FEW,,0.00,499.0,WeatherDisplay:10.37,2013-04-21 19:47:00,
2013-04-21 14:52:00,68.0,45.3,30.07,South,180,17.3,17.3,44,0.00,FEW,,0.00,911.0,WeatherDisplay:10.37,2013-04-21 19:52:00,
2013-04-21 14:57:00,68.3,47.3,30.07,SSE,150,9.2,9.2,47,0.00,FEW,,0.00,911.0,WeatherDisplay:10.37,2013-04-21 19:57:00,
2013-04-21 15:02:00,68.2,46.0,30.07,SE,140,9.2,9.2,45,0.00,FEW,,0.00,264.0,WeatherDisplay:10.37,2013-04-21 20:02:00,
2013-04-21 15:07:00,67.9,46.3,30.07,SSE,168,8.1,8.1,46,0.00,FEW,,0.00,942.0,WeatherDisplay:10.37,2013-04-21 20:07:00,
2013-04-21 15:12:00,68.4,44.4,30.06,South,191,19.6,19.6,42,0.00,FEW,,0.00,900.0,WeatherDisplay:10.37,2013-04-21 20:12:00,
2013-04-21 15:17:00,68.5,43.9,30.06,ESE,120,18.4,18.4,41,0.00,FEW,,0.00,867.0,WeatherDisplay:10.37,2013-04-21 20:17:00,
2013-04-21 15:22:00,68.6,44.6,30.06,SSW,194,20.7,20.7,42,0.00,FEW,,0.00,842.0,WeatherDisplay:10.37,2013-04-21 20:22:00,
2013-04-21 15:27:00,69.0,45.6,30.05,ESE,117,9.2,9.2,43,0.00,FEW,,0.00,837.0,WeatherDisplay:10.37,2013-04-21 20:27:00,
2013-04-21 15:32:00,69.1,45.0,30.05,SSE,163,19.6,19.6,42,0.00,FEW,,0.00,821.0,WeatherDisplay:10.37,2013-04-21 20:32:00,
2013-04-21 15:37:00,69.2,45.1,30.05,SSE,151,20.0,20.0,42,0.00,FEW,,0.00,814.0,WeatherDisplay:10.37,2013-04-21 20:37:00,
2013-04-21 15:42:00,69.1,45.0,30.05,South,171,14.0,14.0,42,0.00,FEW,,0.00,819.0,WeatherDisplay:10.37,2013-04-21 20:42:00,
2013-04-21 15:47:00,69.3,44.6,30.05,SSE,147,21.9,21.9,41,0.00,FEW,,0.00,786.0,WeatherDisplay:10.37,2013-04-21 20:47:00,
2013-04-21 15:52:00,69.1,44.4,30.05,SE,144,11.5,11.5,41,0.00,FEW,,0.00,773.0,WeatherDisplay:10.37,2013-04-21 20:52:00,
2013-04-21 15:57:00,69.2,44.5,30.05,SSE,163,21.9,21.9,41,0.00,FEW,,0.00,765.0,WeatherDisplay:10.37,2013-04-21 20:57:00,
2013-04-21 16:02:00,68.9,44.2,30.05,SSW,202,17.3,17.3,41,0.00,FEW,,0.00,752.0,WeatherDisplay:10.37,2013-04-21 21:02:00,
2013-04-21 16:07:00,68.9,44.9,30.04,South,189,11.5,11.5,42,0.00,FEW,,0.00,744.0,WeatherDisplay:10.37,2013-04-21 21:07:00,
2013-04-21 16:12:00,68.9,44.9,30.04,WSW,238,16.1,16.1,42,0.00,FEW,,0.00,728.0,WeatherDisplay:10.37,2013-04-21 21:12:00,
2013-04-21 16:17:00,69.1,45.0,30.04,South,179,11.5,11.5,42,0.00,FEW,,0.00,714.0,WeatherDisplay:10.37,2013-04-21 21:17:00,
2013-04-21 16:22:00,69.4,44.7,30.04,SSW,200,13.8,13.8,41,0.00,FEW,,0.00,703.0,WeatherDisplay:10.37,2013-04-21 21:22:00,
2013-04-21 16:27:00,69.5,44.1,30.04,South,182,18.4,18.4,40,0.00,FEW,,0.00,687.0,WeatherDisplay:10.37,2013-04-21 21:27:00,
2013-04-21 16:32:00,69.5,45.4,30.04,South,178,21.9,21.9,42,0.00,FEW,,0.00,677.0,WeatherDisplay:10.37,2013-04-21 21:32:00,
2013-04-21 16:37:00,69.5,44.1,30.04,South,178,10.4,10.4,40,0.00,FEW,,0.00,663.0,WeatherDisplay:10.37,2013-04-21 21:37:00,
2013-04-21 16:42:00,69.4,43.4,30.04,South,181,10.4,10.4,39,0.00,FEW,,0.00,649.0,WeatherDisplay:10.37,2013-04-21 21:42:00,
2013-04-21 16:47:00,69.2,44.5,30.03,SE,130,9.2,9.2,41,0.00,FEW,,0.00,636.0,WeatherDisplay:10.37,2013-04-21 21:47:00,
2013-04-21 16:52:00,69.3,43.9,30.03,South,188,13.8,13.8,40,0.00,FEW,,0.00,619.0,WeatherDisplay:10.37,2013-04-21 21:52:00,
2013-04-21 16:57:00,69.3,43.9,30.03,SSW,194,12.7,12.7,40,0.00,FEW,,0.00,606.0,WeatherDisplay:10.37,2013-04-21 21:57:00,
2013-04-21 17:02:00,69.2,44.5,30.03,SSW,192,12.7,12.7,41,0.00,SCT,,0.00,573.0,WeatherDisplay:10.37,2013-04-21 22:02:00,
2013-04-21 17:07:00,69.0,44.3,30.03,SE,130,21.0,21.0,41,0.00,SCT,,0.00,580.0,WeatherDisplay:10.37,2013-04-21 22:07:00,
2013-04-21 17:12:00,69.0,44.3,30.03,South,174,17.3,17.3,41,0.00,SCT,,0.00,561.0,WeatherDisplay:10.37,2013-04-21 22:12:00,
2013-04-21 17:17:00,69.1,44.4,30.03,South,184,10.4,10.4,41,0.00,SCT,,0.00,547.0,WeatherDisplay:10.37,2013-04-21 22:17:00,
2013-04-21 17:22:00,69.0,44.3,30.03,South,178,5.0,5.0,41,0.00,SCT,,0.00,531.0,WeatherDisplay:10.37,2013-04-21 22:22:00,
2013-04-21 17:27:00,68.9,44.2,30.03,SE,144,13.0,13.0,41,0.00,SCT,,0.00,512.0,WeatherDisplay:10.37,2013-04-21 22:27:00,
2013-04-21 17:32:00,68.9,44.2,30.03,SE,125,13.8,13.8,41,0.00,SCT,,0.00,499.0,WeatherDisplay:10.37,2013-04-21 22:32:00,
2013-04-21 17:37:00,68.8,43.5,30.03,SSE,167,13.8,13.8,40,0.00,SCT,,0.00,483.0,WeatherDisplay:10.37,2013-04-21 22:37:00,
2013-04-21 17:42:00,68.8,43.5,30.03,SW,221,10.4,10.4,40,0.00,SCT,,0.00,466.0,WeatherDisplay:10.37,2013-04-21 22:42:00,
2013-04-21 17:47:00,68.8,43.5,30.03,South,169,12.0,12.0,40,0.00,SCT,,0.00,445.0,WeatherDisplay:10.37,2013-04-21 22:47:00,
2013-04-21 17:52:00,68.7,43.4,30.03,SSW,196,17.3,17.3,40,0.00,SCT,,0.00,427.0,WeatherDisplay:10.37,2013-04-21 22:52:00,
2013-04-21 17:57:00,68.6,44.6,30.03,SSW,196,6.9,6.9,42,0.00,SCT,,0.00,406.0,WeatherDisplay:10.37,2013-04-21 22:57:00,
2013-04-21 18:02:00,68.6,43.9,30.03,South,182,11.5,11.5,41,0.00,SCT,,0.00,390.0,WeatherDisplay:10.37,2013-04-21 23:02:00,
2013-04-21 18:07:00,68.6,43.9,30.03,SSE,166,13.8,13.8,41,0.00,SCT,,0.00,371.0,WeatherDisplay:10.37,2013-04-21 23:07:00,
2013-04-21 18:12:00,68.4,43.8,30.03,South,169,15.0,15.0,41,0.00,SCT,,0.00,352.0,WeatherDisplay:10.37,2013-04-21 23:12:00,
2013-04-21 18:17:00,67.9,44.0,30.03,South,170,5.8,5.8,42,0.00,SCT,,0.00,334.0,WeatherDisplay:10.37,2013-04-21 23:17:00,
2013-04-21 18:22:00,67.6,44.3,30.03,SSE,150,10.4,10.4,43,0.00,SCT,,0.00,315.0,WeatherDisplay:10.37,2013-04-21 23:22:00,
2013-04-21 18:27:00,67.4,44.1,30.03,SSE,167,8.1,8.1,43,0.00,SCT,,0.00,294.0,WeatherDisplay:10.37,2013-04-21 23:27:00,
2013-04-21 18:32:00,67.3,45.2,30.03,SE,127,10.4,10.4,45,0.00,SCT,,0.00,72.0,WeatherDisplay:10.37,2013-04-21 23:32:00,
2013-04-21 18:37:00,67.1,43.8,30.03,SSE,167,13.8,13.8,43,0.00,SCT,,0.00,54.0,WeatherDisplay:10.37,2013-04-21 23:37:00,
2013-04-21 18:42:00,66.9,44.3,30.04,SSE,163,8.1,8.1,44,0.00,SCT,,0.00,53.0,WeatherDisplay:10.37,2013-04-21 23:42:00,
2013-04-21 18:47:00,66.7,44.7,30.03,South,181,13.8,13.8,45,0.00,SCT,,0.00,49.0,WeatherDisplay:10.37,2013-04-21 23:47:00,
2013-04-21 18:52:00,66.5,44.5,30.04,SSE,165,11.5,11.5,45,0.00,SCT,,0.00,47.0,WeatherDisplay:10.37,2013-04-21 23:52:00,
2013-04-21 18:57:00,66.4,45.0,30.03,South,180,6.9,6.9,46,0.00,SCT,,0.00,46.0,WeatherDisplay:10.37,2013-04-21 23:57:00,
2013-04-21 19:02:00,66.2,44.8,30.03,SSE,147,15.0,15.0,46,0.00,FEW,,0.00,44.0,WeatherDisplay:10.37,2013-04-22 00:02:00,
2013-04-21 19:07:00,66.0,44.0,30.04,SE,140,10.4,10.4,45,0.00,FEW,,0.00,42.0,WeatherDisplay:10.37,2013-04-22 00:07:00,
2013-04-21 19:12:00,65.9,44.5,30.04,South,186,11.5,11.5,46,0.00,FEW,,0.00,40.0,WeatherDisplay:10.37,2013-04-22 00:12:00,
2013-04-21 19:17:00,65.7,44.9,30.04,SSE,167,6.9,6.9,47,0.00,FEW,,0.00,37.0,WeatherDisplay:10.37,2013-04-22 00:17:00,
2013-04-21 19:22:00,65.6,45.4,30.04,South,182,10.4,10.4,48,0.00,FEW,,0.00,35.0,WeatherDisplay:10.37,2013-04-22 00:22:00,
2013-04-21 19:27:00,65.4,45.2,30.04,South,186,6.0,6.0,48,0.00,FEW,,0.00,33.0,WeatherDisplay:10.37,2013-04-22 00:27:00,
2013-04-21 19:32:00,65.2,45.5,30.04,SSE,165,9.2,9.2,49,0.00,FEW,,0.00,28.0,WeatherDisplay:10.37,2013-04-22 00:32:00,
2013-04-21 19:37:00,65.0,45.9,30.04,SSE,148,4.6,4.6,50,0.00,FEW,,0.00,26.0,WeatherDisplay:10.37,2013-04-22 00:37:00,
2013-04-21 19:42:00,64.7,46.1,30.04,SSW,192,9.2,9.2,51,0.00,FEW,,0.00,25.0,WeatherDisplay:10.37,2013-04-22 00:42:00,
2013-04-21 19:47:00,64.4,45.9,30.04,SSE,155,5.8,5.8,51,0.00,FEW,,0.00,21.0,WeatherDisplay:10.37,2013-04-22 00:47:00,
2013-04-21 19:52:00,64.2,46.2,30.05,South,175,3.5,3.5,52,0.00,FEW,,0.00,18.0,WeatherDisplay:10.37,2013-04-22 00:52:00,
2013-04-21 19:57:00,63.8,46.3,30.05,South,173,3.5,3.5,53,0.00,FEW,,0.00,14.0,WeatherDisplay:10.37,2013-04-22 00:57:00,
2013-04-21 20:02:00,63.6,46.1,30.05,SE,146,2.3,2.3,53,0.00,FEW,,0.00,9.0,WeatherDisplay:10.37,2013-04-22 01:02:00,
2013-04-21 20:07:00,63.2,46.3,30.05,SSE,164,3.5,3.5,54,0.00,FEW,,0.00,5.0,WeatherDisplay:10.37,2013-04-22 01:07:00,
2013-04-21 20:12:00,62.8,46.4,30.06,South,169,3.5,3.5,55,0.00,FEW,,0.00,0.0,WeatherDisplay:10.37,2013-04-22 01:12:00,
2013-04-21 20:17:00,62.3,45.9,30.06,South,171,5.8,5.8,55,0.00,FEW,,0.00,0.0,WeatherDisplay:10.37,2013-04-22 01:17:00,
2013-04-21 20:22:00,62.0,46.1,30.06,SSE,166,3.5,3.5,56,0.00,FEW,,0.00,0.0,WeatherDisplay:10.37,2013-04-22 01:22:00,
2013-04-21 20:27:00,61.6,46.2,30.06,SSE,167,3.5,3.5,57,0.00,FEW,,0.00,0.0,WeatherDisplay:10.37,2013-04-22 01:27:00,
2013-04-21 20:32:00,61.3,45.9,30.06,South,178,5.8,5.8,57,0.00,FEW,,0.00,0.0,WeatherDisplay:10.37,2013-04-22 01:32:00,
2013-04-21 20:37:00,61.1,45.7,30.06,SSE,161,5.0,5.0,57,0.00,FEW,,0.00,0.0,WeatherDisplay:10.37,2013-04-22 01:37:00,
2013-04-21 20:42:00,60.9,46.0,30.06,SSE,156,5.8,5.8,58,0.00,FEW,,0.00,0.0,WeatherDisplay:10.37,2013-04-22 01:42:00,
2013-04-21 20:47:00,60.8,45.9,30.06,SE,136,3.5,3.5,58,0.00,FEW,,0.00,0.0,WeatherDisplay:10.37,2013-04-22 01:47:00,
2013-04-21 20:52:00,60.7,45.8,30.06,South,176,4.6,4.6,58,0.00,FEW,,0.00,0.0,WeatherDisplay:10.37,2013-04-22 01:52:00,
2013-04-21 20:57:00,60.4,46.0,30.06,South,171,4.6,4.6,59,0.00,FEW,,0.00,0.0,WeatherDisplay:10.37,2013-04-22 01:57:00,
2013-04-21 21:02:00,60.2,46.3,30.07,SE,144,3.5,3.5,60,0.00,FEW,,0.00,0.0,WeatherDisplay:10.37,2013-04-22 02:02:00,
2013-04-21 21:07:00,60.0,46.1,30.07,SSE,147,3.5,3.5,60,0.00,FEW,,0.00,0.0,WeatherDisplay:10.37,2013-04-22 02:07:00,
2013-04-21 21:12:00,59.7,46.2,30.07,ESE,114,3.5,3.5,61,0.00,FEW,,0.00,0.0,WeatherDisplay:10.37,2013-04-22 02:12:00,
2013-04-21 21:17:00,59.3,45.8,30.07,SE,136,4.6,4.6,61,0.00,FEW,,0.00,0.0,WeatherDisplay:10.37,2013-04-22 02:17:00,
2013-04-21 21:22:00,59.0,46.0,30.07,SE,144,3.5,3.5,62,0.00,FEW,,0.00,0.0,WeatherDisplay:10.37,2013-04-22 02:22:00,
2013-04-21 21:27:00,58.7,46.1,30.07,SSE,155,3.5,3.5,63,0.00,FEW,,0.00,0.0,WeatherDisplay:10.37,2013-04-22 02:27:00,
2013-04-21 21:32:00,58.5,45.9,30.07,South,178,5.8,5.8,63,0.00,FEW,,0.00,0.0,WeatherDisplay:10.37,2013-04-22 02:32:00,
2013-04-21 21:37:00,58.2,46.1,30.07,SSE,150,3.5,3.5,64,0.00,FEW,,0.00,0.0,WeatherDisplay:10.37,2013-04-22 02:37:00,
2013-04-21 21:42:00,58.0,45.9,30.07,SE,144,8.1,8.1,64,0.00,FEW,,0.00,0.0,WeatherDisplay:10.37,2013-04-22 02:42:00,
2013-04-21 21:47:00,57.7,46.0,30.07,SSE,159,8.1,8.1,65,0.00,FEW,,0.00,0.0,WeatherDisplay:10.37,2013-04-22 02:47:00,
2013-04-21 21:52:00,57.6,45.9,30.07,SE,146,3.5,3.5,65,0.00,FEW,,0.00,0.0,WeatherDisplay:10.37,2013-04-22 02:52:00,
2013-04-21 21:57:00,57.6,45.9,30.07,SSE,148,8.1,8.1,65,0.00,FEW,,0.00,0.0,WeatherDisplay:10.37,2013-04-22 02:57:00,
2013-04-21 22:02:00,57.7,45.6,30.07,SSE,147,9.2,9.2,64,0.00,SCT,,0.00,0.0,WeatherDisplay:10.37,2013-04-22 03:02:00,
2013-04-21 22:07:00,57.8,45.7,30.07,SSE,158,3.5,3.5,64,0.00,SCT,,0.00,0.0,WeatherDisplay:10.37,2013-04-22 03:07:00,
2013-04-21 22:12:00,57.7,45.6,30.07,South,175,6.9,6.9,64,0.00,SCT,,0.00,0.0,WeatherDisplay:10.37,2013-04-22 03:12:00,
2013-04-21 22:17:00,57.5,45.8,30.07,SSE,148,9.2,9.2,65,0.00,SCT,,0.00,0.0,WeatherDisplay:10.37,2013-04-22 03:17:00,
2013-04-21 22:22:00,57.5,45.8,30.07,South,178,3.5,3.5,65,0.00,SCT,,0.00,0.0,WeatherDisplay:10.37,2013-04-22 03:22:00,
2013-04-21 22:27:00,57.3,45.6,30.07,SSE,153,5.8,5.8,65,0.00,SCT,,0.00,0.0,WeatherDisplay:10.37,2013-04-22 03:27:00,
2013-04-21 22:32:00,57.3,45.6,30.07,SE,142,4.6,4.6,65,0.00,SCT,,0.00,0.0,WeatherDisplay:10.37,2013-04-22 03:32:00,
2013-04-21 22:37:00,57.2,45.5,30.07,SE,138,9.2,9.2,65,0.00,SCT,,0.00,0.0,WeatherDisplay:10.37,2013-04-22 03:37:00,
2013-04-21 22:42:00,57.1,45.4,30.07,SE,145,11.5,11.5,65,0.00,SCT,,0.00,0.0,WeatherDisplay:10.37,2013-04-22 03:42:00,
2013-04-21 22:47:00,57.1,45.0,30.07,SE,138,6.9,6.9,64,0.00,SCT,,0.00,0.0,WeatherDisplay:10.37,2013-04-22 03:47:00,
2013-04-21 22:52:00,57.1,45.4,30.07,SE,138,3.5,3.5,65,0.00,SCT,,0.00,0.0,WeatherDisplay:10.37,2013-04-22 03:52:00,
2013-04-21 22:57:00,56.9,45.3,30.07,SE,132,6.9,6.9,65,0.00,SCT,,0.00,0.0,WeatherDisplay:10.37,2013-04-22 03:57:00,
2013-04-21 23:01:00,56.8,45.2,30.07,SSE,163,4.6,4.6,65,0.00,SCT,,0.00,0.0,WeatherDisplay:10.37,2013-04-22 04:01:00,
2013-04-21 23:06:00,56.6,45.4,30.07,South,169,4.6,4.6,66,0.00,SCT,,0.00,0.0,WeatherDisplay:10.37,2013-04-22 04:06:00,
2013-04-21 23:11:00,56.4,45.2,30.06,ESE,103,3.5,3.5,66,0.00,SCT,,0.00,0.0,WeatherDisplay:10.37,2013-04-22 04:11:00,
2013-04-21 23:16:00,56.2,45.0,30.06,SSE,153,7.0,7.0,66,0.00,SCT,,0.00,0.0,WeatherDisplay:10.37,2013-04-22 04:16:00,
2013-04-21 23:21:00,55.9,45.1,30.06,SE,137,3.5,3.5,67,0.00,SCT,,0.00,0.0,WeatherDisplay:10.37,2013-04-22 04:21:00,
2013-04-21 23:26:00,55.7,44.9,30.06,SE,134,4.6,4.6,67,0.00,SCT,,0.00,0.0,WeatherDisplay:10.37,2013-04-22 04:26:00,
2013-04-21 23:31:00,55.4,45.0,30.06,SE,145,3.5,3.5,68,0.00,SCT,,0.00,0.0,WeatherDisplay:10.37,2013-04-22 04:31:00,
2013-04-21 23:36:00,55.1,44.7,30.06,SE,137,5.8,5.8,68,0.00,SCT,,0.00,0.0,WeatherDisplay:10.37,2013-04-22 04:36:00,
2013-04-21 23:41:00,54.9,44.5,30.06,SE,124,5.0,5.0,68,0.00,SCT,,0.00,0.0,WeatherDisplay:10.37,2013-04-22 04:41:00,
2013-04-21 23:46:00,54.6,44.6,30.06,SSE,157,4.6,4.6,69,0.00,SCT,,0.00,0.0,WeatherDisplay:10.37,2013-04-22 04:46:00,
2013-04-21 23:51:00,54.4,44.4,30.06,SE,129,3.5,3.5,69,0.00,SCT,,0.00,0.0,WeatherDisplay:10.37,2013-04-22 04:51:00,
2013-04-21 23:56:00,54.1,44.5,30.07,SE,143,5.0,5.0,70,0.00,SCT,,0.00,0.0,WeatherDisplay:10.37,2013-04-22 04:56:00,